Latest Weather Observations for Warrnambool

IDV60801

Issued at 6:35 pm EDT Thursday 23 October 2014 (issued every 30 minutes, with the page automatically refreshed every 10 minutes)

About weather observations | Map of weather stations | Latest weather observations for VIC | Other Formats
Station Details ID: 090186 Name: WARRNAMBOOL AIRPORT NDB Lat: -38.29 Lon: 142.45 Height: 70.8 m
Data from the previous 72 hours. | See also: Recent months at Warrnambool
Date/Time
EDT
Temp
°C
App
Temp
°C
Dew
Point
Rel
Hum
%
Delta-T
°C
Wind Press
QNH
hPa
Press
MSL
hPa
Rain
since 9 am
mm
Dir
 
Spd
km/h
Gust
km/h
Spd
kts
Gust
kts
23/06:30pm 17.2 15.5 13.7 80 2.0 S 15 19 8 10 1015.5 1015.5 0.0
23/06:00pm 17.4 15.4 13.9 80 2.0 S 17 24 9 13 1015.5 1015.5 0.0
23/05:30pm 17.3 15.3 14.0 81 1.9 S 17 26 9 14 1015.6 1015.6 0.0
23/05:00pm 17.0 14.3 13.5 80 2.0 SSE 20 32 11 17 1015.8 1015.8 0.0
23/04:30pm 16.9 13.8 13.4 80 2.0 SSE 22 28 12 15 1016.2 1016.2 0.0
23/04:00pm 17.5 14.4 13.4 77 2.3 S 22 28 12 15 1016.5 1016.5 0.0
23/03:30pm 17.8 15.0 13.3 75 2.5 SSE 20 26 11 14 1016.7 1016.7 0.0
23/03:00pm 17.4 14.6 12.7 74 2.6 S 19 24 10 13 1017.0 1017.0 0.0
23/02:30pm 18.4 16.5 14.1 76 2.5 S 17 22 9 12 1017.4 1017.4 0.0
23/02:00pm 18.6 17.3 13.7 73 2.8 ESE 13 22 7 12 1017.8 1017.8 0.0
23/01:30pm 17.3 15.8 13.0 76 2.4 ESE 13 22 7 12 1018.3 1018.3 0.0
23/01:00pm 15.9 13.8 12.3 79 2.0 SE 15 20 8 11 1018.8 1018.8 0.0
23/12:30pm 15.3 12.8 12.2 82 1.7 SE 17 28 9 15 1019.1 1019.1 0.0
23/12:00pm 14.5 11.8 11.6 83 1.6 SE 17 28 9 15 1019.5 1019.5 0.0
23/11:30am 14.2 10.6 11.9 86 1.2 SE 22 30 12 16 1020.0 1020.0 0.0
23/11:00am 13.8 10.1 11.5 86 1.2 SE 22 30 12 16 1020.1 1020.1 0.0
23/10:30am 13.9 10.6 11.6 86 1.2 SE 20 30 11 16 1020.6 1020.6 0.0
23/10:00am 13.6 10.9 11.7 88 1.0 SE 17 26 9 14 1020.8 1020.8 0.0
23/09:30am 13.5 10.7 11.4 87 1.1 SE 17 26 9 14 1020.7 1020.7 0.0
23/09:00am 13.4 10.0 11.3 87 1.1 SE 20 32 11 17 1020.7 1020.7 0.0
23/08:30am 13.2 10.4 11.4 89 1.0 SE 17 24 9 13 1020.9 1020.9 0.0
23/08:00am 13.1 10.3 11.5 90 0.8 SE 17 22 9 12 1020.9 1020.9 0.0
23/07:30am 12.8 10.0 11.4 91 0.7 SE 17 20 9 11 1020.7 1020.7 0.0
23/07:00am 12.7 9.9 11.4 92 0.7 SE 17 22 9 12 1020.3 1020.3 0.0
23/06:30am 12.7 9.3 11.4 92 0.7 SE 20 30 11 16 1020.3 1020.3 0.0
23/06:00am 12.7 9.7 11.8 94 0.5 SE 19 26 10 14 1020.1 1020.1 0.0
23/05:30am 12.5 9.2 11.7 95 0.4 SSE 20 28 11 15 1020.3 1020.3 0.0
23/05:00am 12.5 9.2 11.7 95 0.4 SSE 20 28 11 15 1020.1 1020.1 0.0
23/04:30am 12.6 9.0 11.7 94 0.5 SSE 22 28 12 15 1019.9 1019.9 0.0
23/04:00am 12.6 9.3 11.5 93 0.6 SSE 20 28 11 15 1020.0 1020.0 0.0
23/03:30am 12.7 9.0 11.6 93 0.6 S 22 32 12 17 1020.0 1020.0 0.0
23/03:00am 12.8 9.5 11.5 92 0.7 SSE 20 26 11 14 1020.2 1020.2 0.0
23/02:30am 12.9 9.2 11.6 92 0.7 SSE 22 33 12 18 1020.3 1020.3 0.0
23/02:00am 12.9 9.2 11.6 92 0.7 SSE 22 30 12 16 1020.3 1020.3 0.0
23/01:30am 13.0 8.6 11.7 92 0.7 SSE 26 33 14 18 1020.5 1020.5 0.0
23/01:00am 12.9 8.9 11.8 93 0.6 S 24 33 13 18 1020.6 1020.6 0.0
23/12:30am 12.8 8.8 11.9 94 0.5 S 24 32 13 17 1020.5 1020.5 0.0
23/12:00am 12.9 9.9 12.1 95 0.4 S 19 26 10 14 1020.7 1020.7 0.0
 
Date/Time
EDT
Temp
°C
App
Temp
°C
Dew
Point
Rel
Hum
%
Delta-T
°C
Wind Press
QNH
hPa
Press
MSL
hPa
Rain
since 9 am
mm
Dir
 
Spd
km/h
Gust
km/h
Spd
kts
Gust
kts
22/11:30pm 12.9 9.7 12.0 94 0.5 S 20 28 11 15 1020.8 1020.8 0.0
22/11:00pm 13.0 10.5 12.2 95 0.4 S 17 22 9 12 1020.6 1020.6 0.0
22/10:30pm 12.9 9.0 12.1 95 0.4 S 24 30 13 16 1020.5 1020.5 0.0
22/10:00pm 13.1 9.3 12.5 96 0.3 S 24 30 13 16 1020.5 1020.5 0.0
22/09:30pm 13.3 10.0 12.8 97 0.3 S 22 32 12 17 1020.6 1020.6 0.0
22/09:00pm 13.3 10.0 12.8 97 0.3 S 22 30 12 16 1020.5 1020.5 0.0
22/08:30pm 13.4 10.5 12.8 96 0.3 S 20 28 11 15 1020.2 1020.2 0.0
22/08:00pm 13.4 10.1 12.9 97 0.3 S 22 30 12 16 1019.8 1019.8 0.0
22/07:30pm 13.5 10.3 13.2 98 0.2 SSW 22 28 12 15 1019.8 1019.8 0.0
22/07:00pm 13.7 9.8 13.4 98 0.2 SSW 26 33 14 18 1018.6 1018.6 0.0
22/06:30pm 14.0 10.5 13.4 96 0.3 SSW 24 32 13 17 1018.1 1018.1 0.0
22/06:00pm 14.5 11.0 13.5 94 0.6 SSW 24 32 13 17 1017.2 1017.2 0.0
22/05:30pm 15.3 11.6 13.8 91 0.8 SSW 26 33 14 18 1017.1 1017.1 0.0
22/05:00pm 16.0 12.5 14.5 91 0.9 SSW 26 32 14 17 1017.2 1017.2 0.0
22/04:30pm 16.8 12.0 14.1 84 1.5 SSW 32 39 17 21 1017.4 1017.4 0.0
22/04:00pm 19.5 15.6 14.5 73 2.9 SW 28 35 15 19 1016.9 1016.9 0.0
22/03:30pm 22.7 18.4 12.0 50 6.1 SW 26 33 14 18 1016.6 1016.6 0.0
22/03:00pm 24.7 20.8 12.0 45 7.2 SW 24 35 13 19 1016.5 1016.5 0.0
22/02:30pm 22.8 18.9 12.1 51 6.1 SSW 24 33 13 18 1016.7 1016.7 0.0
22/02:00pm 24.6 20.3 11.9 45 7.2 SSW 26 33 14 18 1016.6 1016.6 0.0
22/01:30pm 25.9 23.7 13.4 46 7.4 SSW 17 26 9 14 1016.5 1016.5 0.0
22/01:00pm 25.9 24.0 15.3 52 6.4 SSW 19 24 10 13 1016.6 1016.6 0.0
22/12:30pm 25.9 25.5 16.2 55 6.0 W 13 20 7 11 1016.8 1016.8 0.0
22/12:00pm 24.4 23.1 14.8 55 5.7 NNE 15 19 8 10 1016.3 1016.3 0.0
22/11:30am 24.0 24.5 15.5 59 5.1 NE 7 11 4 6 1016.8 1016.8 0.0
22/11:00am 23.8 23.9 15.6 60 4.9 NE 9 11 5 6 1017.2 1017.2 0.0
22/10:30am 23.2 22.7 13.7 55 5.5 NNE 9 15 5 8 1017.4 1017.4 0.0
22/10:00am 22.2 21.9 14.3 61 4.6 NNE 9 13 5 7 1017.6 1017.6 0.0
22/09:30am 21.6 22.2 14.3 63 4.3 NE 4 7 2 4 1017.8 1017.8 0.0
22/09:00am 20.5 21.0 13.9 66 3.8 ESE 4 7 2 4 1017.7 1017.7 0.0
22/08:30am 18.7 18.0 13.1 70 3.2 NE 9 13 5 7 1017.6 1017.6 0.0
22/08:00am 16.9 15.1 12.0 73 2.7 NNE 13 17 7 9 1017.2 1017.2 0.0
22/07:30am 13.8 13.5 10.0 78 2.0 ESE 2 9 1 5 1017.3 1017.3 0.0
22/07:00am 14.0 10.2 9.8 76 2.2 N 20 24 11 13 1017.3 1017.3 0.0
22/06:30am 14.2 10.3 9.4 73 2.5 N 20 24 11 13 1017.0 1017.0 0.0
22/06:00am 14.9 10.3 9.7 71 2.7 N 24 30 13 16 1016.8 1016.8 0.0
22/05:30am 14.1 9.4 9.3 73 2.5 N 24 30 13 16 1016.9 1016.9 0.0
22/05:00am 14.8 10.5 9.2 69 2.9 NNE 22 28 12 15 1017.1 1017.1 0.0
22/04:30am 14.5 10.5 8.9 69 2.9 NNE 20 26 11 14 1016.9 1016.9 0.0
22/04:00am 14.8 10.4 9.0 68 3.0 NNE 22 30 12 16 1017.0 1017.0 0.0
22/03:30am 15.6 11.3 9.3 66 3.3 NNE 22 28 12 15 1017.2 1017.2 0.0
22/03:00am 15.1 11.2 9.5 69 2.9 NNE 20 28 11 15 1017.7 1017.7 0.0
22/02:30am 14.4 10.6 9.8 74 2.4 NNE 20 28 11 15 1018.2 1018.2 0.0
22/02:00am 13.7 10.1 10.5 81 1.7 NNE 20 24 11 13 1018.6 1018.6 0.0
22/01:30am 14.0 10.5 11.0 82 1.6 NNE 20 26 11 14 1019.0 1019.0 0.0
22/01:00am 14.4 11.2 11.4 82 1.6 NE 19 24 10 13 1019.5 1019.5 0.0
22/12:30am 14.9 12.3 11.9 82 1.6 NE 17 26 9 14 1019.8 1019.8 0.0
22/12:00am 15.7 12.2 12.3 80 1.9 NE 22 35 12 19 1020.2 1020.2 0.0
 
Date/Time
EDT
Temp
°C
App
Temp
°C
Dew
Point
Rel
Hum
%
Delta-T
°C
Wind Press
QNH
hPa
Press
MSL
hPa
Rain
since 9 am
mm
Dir
 
Spd
km/h
Gust
km/h
Spd
kts
Gust
kts
21/11:30pm 16.0 12.5 12.2 78 2.1 NE 22 30 12 16 1020.6 1020.6 0.0
21/11:00pm 16.7 13.7 12.7 77 2.2 NE 20 28 11 15 1020.8 1020.8 0.0
21/10:30pm 16.8 13.8 12.7 77 2.3 NE 20 30 11 16 1021.0 1021.0 0.0
21/10:00pm 17.3 14.6 13.0 76 2.4 NE 19 24 10 13 1021.2 1021.2 0.0
21/09:30pm 18.1 16.3 13.4 74 2.7 NE 15 22 8 12 1021.0 1021.0 0.0
21/09:00pm 19.1 18.2 14.8 76 2.5 ENE 13 20 7 11 1020.9 1020.9 0.0
21/08:30pm 16.7 16.3 14.2 85 1.4 E 9 13 5 7 1021.0 1021.0 0.0
21/08:00pm 16.8 17.7 12.9 78 2.2 CALM 0 6 0 3 1020.9 1020.9 0.0
21/07:30pm 18.7 18.8 14.0 74 2.7 S 6 7 3 4 1021.0 1021.0 0.0
21/07:00pm 20.1 20.0 14.9 72 3.0 S 9 11 5 6 1021.0 1021.0 0.0
21/06:30pm 20.8 19.8 14.7 68 3.6 S 13 17 7 9 1021.1 1021.1 0.0
21/06:00pm 21.4 20.4 14.6 65 4.0 SSE 13 17 7 9 1021.3 1021.3 0.0
21/05:30pm 20.6 19.3 14.7 69 3.5 S 15 17 8 9 1021.5 1021.5 0.0
21/05:00pm 20.8 19.2 14.0 65 3.9 S 15 17 8 9 1021.7 1021.7 0.0
21/04:30pm 22.3 20.9 14.4 61 4.7 S 15 17 8 9 1021.7 1021.7 0.0
21/04:00pm 22.8 22.0 15.1 62 4.6 S 13 17 7 9 1022.0 1022.0 0.0
21/03:30pm 25.6 23.7 9.0 35 9.1 NNE 9 17 5 9 1022.3 1022.3 0.0
21/03:00pm 26.0 24.3 8.5 33 9.4 N 7 15 4 8 1022.7 1022.7 0.0
21/02:30pm 24.9 23.0 9.2 37 8.6 N 9 17 5 9 1023.1 1023.1 0.0
21/02:00pm 24.8 23.0 11.0 42 7.7 NE 11 17 6 9 1023.5 1023.6 0.0
21/01:30pm 23.6 20.9 8.8 39 8.0 NE 13 19 7 10 1023.8 1023.9 0.0
21/01:00pm 22.6 19.7 9.7 44 7.0 NNE 15 20 8 11 1024.0 1024.1 0.0
21/12:30pm 21.4 18.4 10.6 50 5.9 NE 17 20 9 11 1024.4 1024.5 0.0
21/12:00pm 20.1 16.7 11.1 56 4.9 NNE 20 30 11 16 1024.7 1024.8 0.0
21/11:30am 19.2 15.5 11.5 61 4.2 NNE 22 30 12 16 1024.8 1024.9 0.0
21/11:00am 17.7 13.9 11.0 65 3.6 NNE 22 32 12 17 1025.1 1025.2 0.0
21/10:30am 16.2 12.6 10.5 69 3.0 NE 20 26 11 14 1025.4 1025.5 0.0
21/10:00am 14.8 11.7 10.2 74 2.4 ENE 17 28 9 15 1025.4 1025.5 0.0
21/09:30am 13.5 10.0 10.3 81 1.7 ENE 19 32 10 17 1025.5 1025.6 0.0
21/09:00am 12.2 9.3 10.9 92 0.7 ENE 17 26 9 14 1025.5 1025.6 0.4
21/08:30am 10.5 7.7 10.0 97 0.3 ENE 15 22 8 12 1025.6 1025.7 0.4
21/08:00am 8.5 5.7 8.4 99 0.0 NE 13 20 7 11 1025.6 1025.7 0.4
21/07:30am 7.4 4.7 7.3 99 0.0 ENE 11 17 6 9 1025.4 1025.5 0.4
21/07:00am 6.6 3.7 6.5 99 0.0 NE 11 15 6 8 1025.4 1025.5 0.4
21/06:30am 6.5 4.0 6.4 99 0.0 ENE 9 15 5 8 1025.2 1025.3 0.4
21/06:00am 6.3 3.7 6.2 99 0.0 NE 9 11 5 6 1025.2 1025.3 0.4
21/05:30am 5.7 3.3 5.3 97 0.2 NE 7 11 4 6 1025.3 1025.4 0.4
21/05:00am 6.2 3.9 5.9 98 0.1 NE 7 11 4 6 1025.6 1025.7 0.4
21/04:30am 4.5 1.8 3.9 96 0.3 ENE 7 9 4 5 1025.7 1025.8 0.4
21/04:00am 6.2 4.1 5.8 97 0.2 NE 6 9 3 5 1025.8 1025.9 0.4
21/03:30am 7.0 4.1 6.6 97 0.2 ENE 11 15 6 8 1025.7 1025.8 0.4
21/03:00am 6.6 3.2 6.0 96 0.3 E 13 17 7 9 1025.8 1025.9 0.4
21/02:30am 5.8 3.0 5.1 95 0.3 E 9 11 5 6 1026.3 1026.4 0.4
21/02:00am 6.1 3.3 5.2 94 0.4 ENE 9 11 5 6 1026.8 1026.9 0.4
21/01:30am 6.5 4.2 5.5 93 0.4 E 7 13 4 7 1027.2 1027.3 0.4
21/01:00am 6.6 5.2 5.4 92 0.5 E 2 9 1 5 1027.7 1027.7 0.4
21/12:30am 6.6 5.1 5.2 91 0.6 ESE 2 6 1 3 1028.0 1028.0 0.4
21/12:00am 7.1 5.0 5.6 90 0.7 ESE 6 9 3 5 1028.0 1028.0 0.4
 
Date/Time
EDT
Temp
°C
App
Temp
°C
Dew
Point
Rel
Hum
%
Delta-T
°C
Wind Press
QNH
hPa
Press
MSL
hPa
Rain
since 9 am
mm
Dir
 
Spd
km/h
Gust
km/h
Spd
kts
Gust
kts
20/11:30pm 6.9 4.5 5.1 88 0.8 SE 7 9 4 5 1028.3 1028.3 0.4
20/11:00pm 7.7 5.4 5.5 86 1.0 ESE 7 9 4 5 1028.4 1028.4 0.4
20/10:30pm 8.5 6.3 6.1 85 1.1 ESE 7 11 4 6 1028.6 1028.6 0.4
20/10:00pm 9.2 6.3 6.6 84 1.2 E 11 15 6 8 1028.6 1028.6 0.4
20/09:30pm 9.3 6.8 6.7 84 1.2 E 9 13 5 7 1028.8 1028.8 0.4
20/09:00pm 10.1 6.8 6.6 79 1.6 ENE 13 17 7 9 1028.5 1028.5 0.4
20/08:30pm 11.3 7.4 7.0 75 2.1 ENE 17 22 9 12 1028.0 1028.0 0.4
20/08:00pm 11.9 9.5 7.2 73 2.3 E 9 13 5 7 1027.9 1027.9 0.4
20/07:30pm 13.0 10.5 8.1 72 2.4 ESE 11 20 6 11 1027.9 1027.9 0.4
20/07:00pm 14.0 10.4 8.2 68 2.9 SE 17 28 9 15 1027.3 1027.4 0.4

Other Formats:

Comma delimited format used in spreadsheet applications
http://www.bom.gov.au/fwo/IDV60801/IDV60801.94837.axf

JavaScript Object Notation format (JSON) in row-major order
http://www.bom.gov.au/fwo/IDV60801/IDV60801.94837.json